createdAt,value
2019-04-21T00:01:16.669Z,16.30
2019-04-21T00:03:53.247Z,18.43
2019-04-21T00:06:41.008Z,17.30
2019-04-21T00:09:22.554Z,10.57
2019-04-21T00:11:48.261Z,13.77
2019-04-21T00:14:13.284Z,12.50
2019-04-21T00:16:36.836Z,16.77
2019-04-21T00:19:28.794Z,16.30
2019-04-21T00:22:11.701Z,13.20
2019-04-21T00:24:44.491Z,22.83
2019-04-21T00:27:23.382Z,15.97
2019-04-21T00:29:51.851Z,14.20
2019-04-21T00:32:23.132Z,14.17
2019-04-21T00:34:41.092Z,13.77
2019-04-21T00:37:20.778Z,15.73
2019-04-21T00:40:06.530Z,12.97
2019-04-21T00:42:37.422Z,13.40
2019-04-21T00:45:01.840Z,15.73
2019-04-21T00:47:47.753Z,13.30
2019-04-21T00:50:11.276Z,18.10
2019-04-21T00:53:03.480Z,15.27
2019-04-21T00:55:44.451Z,15.50
2019-04-21T00:58:17.542Z,10.23
2019-04-21T01:00:46.354Z,13.47
2019-04-21T01:03:20.178Z,12.07
2019-04-21T01:05:52.836Z,12.10
2019-04-21T01:08:21.493Z,12.67
2019-04-21T01:10:44.701Z,12.30
2019-04-21T01:13:27.332Z,16.87
2019-04-21T01:16:00.787Z,14.93
2019-04-21T01:18:32.875Z,13.37
2019-04-21T01:20:41.102Z,10.60
2019-04-21T01:23:12.589Z,15.00
2019-04-21T01:25:55.441Z,13.10
2019-04-21T01:28:36.563Z,20.53
2019-04-21T01:31:08.766Z,10.87
2019-04-21T01:33:44.534Z,16.50
2019-04-21T01:36:08.442Z,13.30
2019-04-21T01:38:51.010Z,11.17
2019-04-21T01:41:19.842Z,13.73
2019-04-21T01:43:53.457Z,15.63
2019-04-21T01:46:19.558Z,11.93
2019-04-21T01:48:49.335Z,12.60
2019-04-21T01:51:22.495Z,10.20
2019-04-21T01:54:35.108Z,16.67
2019-04-21T01:57:21.112Z,15.70
2019-04-21T01:59:53.001Z,14.70
2019-04-21T02:02:29.319Z,12.57
2019-04-21T02:05:12.405Z,8.93
2019-04-21T02:07:37.946Z,12.20
2019-04-21T02:10:11.430Z,13.70
2019-04-21T02:12:41.070Z,13.23
2019-04-21T02:15:20.096Z,11.40
2019-04-21T02:17:40.746Z,12.37
2019-04-21T02:20:08.150Z,13.17
2019-04-21T02:23:06.019Z,13.07
2019-04-21T02:25:22.722Z,12.67
2019-04-21T02:27:57.721Z,12.63
2019-04-21T02:30:36.534Z,14.50
2019-04-21T02:33:10.077Z,18.30
2019-04-21T02:36:02.242Z,13.83
2019-04-21T02:38:34.429Z,15.33
2019-04-21T02:40:46.715Z,13.13
2019-04-21T02:43:19.278Z,15.07
2019-04-21T02:45:51.785Z,15.97
2019-04-21T02:48:35.295Z,18.37
2019-04-21T02:56:00.540Z,13.07
2019-04-21T02:58:47.963Z,12.57
2019-04-21T03:01:33.393Z,13.57
2019-04-21T03:04:19.606Z,15.27
2019-04-21T03:07:15.071Z,14.83
2019-04-21T03:09:39.416Z,11.77
2019-04-21T03:12:22.286Z,13.73
2019-04-21T03:15:06.187Z,14.70
2019-04-21T03:17:22.325Z,14.03
2019-04-21T03:19:55.809Z,16.70
2019-04-21T03:22:32.393Z,15.07
2019-04-21T03:29:59.426Z,12.60
2019-04-21T03:37:37.215Z,12.77
2019-04-21T03:40:08.039Z,13.50
2019-04-21T03:42:38.846Z,14.17
2019-04-21T03:45:18.705Z,13.83
2019-04-21T03:50:12.814Z,15.83
2019-04-21T03:55:48.743Z,15.10
2019-04-21T03:58:15.196Z,15.73
2019-04-21T04:06:27.997Z,17.07
2019-04-21T04:09:19.441Z,15.47
2019-04-21T04:14:39.943Z,16.27
2019-04-21T04:17:06.426Z,21.90
2019-04-21T04:19:30.024Z,10.77
2019-04-21T04:22:14.585Z,18.87
2019-04-21T04:24:34.242Z,18.20
2019-04-21T04:32:03.388Z,17.80
2019-04-21T04:34:40.584Z,14.87
2019-04-21T04:45:25.600Z,14.90
2019-04-21T04:47:54.685Z,15.70
2019-04-21T04:50:34.049Z,15.73
2019-04-21T04:53:17.906Z,12.43
2019-04-21T04:55:31.957Z,16.03
2019-04-21T04:57:59.398Z,22.57
2019-04-21T05:00:34.884Z,16.83
2019-04-21T05:03:00.975Z,16.63
2019-04-21T05:05:59.557Z,12.67
2019-04-21T05:08:19.776Z,13.40
2019-04-21T05:10:47.683Z,17.07
2019-04-21T05:13:06.491Z,13.47
2019-04-21T05:15:42.083Z,17.20
2019-04-21T05:18:15.177Z,17.13
2019-04-21T05:20:52.362Z,13.93
2019-04-21T05:23:14.454Z,17.43
2019-04-21T05:25:38.857Z,16.50
2019-04-21T05:28:10.263Z,16.77
2019-04-21T05:31:15.175Z,15.73
2019-04-21T05:34:03.139Z,16.17
2019-04-21T05:36:56.727Z,14.70
2019-04-21T05:39:53.497Z,22.33
2019-04-21T05:42:23.667Z,16.43
2019-04-21T05:47:48.628Z,15.43
2019-04-21T05:50:19.208Z,15.37
2019-04-21T05:52:51.889Z,16.20
2019-04-21T05:55:34.206Z,12.87
2019-04-21T05:57:58.544Z,15.77
2019-04-21T06:00:55.873Z,19.77
2019-04-21T06:03:10.116Z,17.47
2019-04-21T06:05:44.567Z,21.40
2019-04-21T06:08:13.226Z,16.07
2019-04-21T06:10:48.850Z,20.33
2019-04-21T06:13:24.355Z,13.53
2019-04-21T06:16:03.976Z,14.27
2019-04-21T06:18:28.898Z,13.40
2019-04-21T06:20:54.584Z,12.63
2019-04-21T06:23:25.695Z,14.60
2019-04-21T06:26:25.622Z,13.37
2019-04-21T06:28:38.610Z,14.00
2019-04-21T06:33:41.738Z,14.53
2019-04-21T06:36:31.970Z,15.77
2019-04-21T06:39:06.495Z,18.10
2019-04-21T06:44:11.854Z,12.47
2019-04-21T06:46:40.467Z,13.90
2019-04-21T06:51:30.796Z,14.23
2019-04-21T06:56:40.935Z,12.83
2019-04-21T06:59:25.264Z,16.70
2019-04-21T07:01:56.739Z,12.30
2019-04-21T07:06:51.655Z,17.30
2019-04-21T07:11:56.782Z,14.53
2019-04-21T07:14:31.993Z,9.77
2019-04-21T07:17:05.063Z,12.47
2019-04-21T07:19:39.035Z,12.77
2019-04-21T07:22:03.178Z,13.67
2019-04-21T07:24:36.806Z,11.40
2019-04-21T07:27:10.174Z,16.50
2019-04-21T07:29:50.747Z,13.83
2019-04-21T07:32:16.518Z,16.60
2019-04-21T07:34:47.937Z,11.47
2019-04-21T07:37:17.435Z,10.97
2019-04-21T07:39:52.809Z,10.60
2019-04-21T07:42:20.730Z,10.57
2019-04-21T07:44:49.484Z,13.80
2019-04-21T07:47:26.757Z,10.20
2019-04-21T07:50:29.855Z,15.37
2019-04-21T07:53:01.139Z,11.93
2019-04-21T07:58:02.947Z,12.53
2019-04-21T08:00:45.386Z,14.43
2019-04-21T08:03:08.148Z,12.47
2019-04-21T08:05:45.745Z,14.33
2019-04-21T08:08:13.934Z,13.43
2019-04-21T08:10:47.154Z,11.50
2019-04-21T08:13:28.969Z,11.50
2019-04-21T08:15:52.977Z,12.57
2019-04-21T08:18:20.553Z,10.33
2019-04-21T08:20:58.506Z,13.10
2019-04-21T08:23:29.714Z,10.23
2019-04-21T08:28:35.518Z,12.13
2019-04-21T08:31:01.617Z,10.58
2019-04-21T08:33:38.361Z,10.82
2019-04-21T08:38:46.006Z,10.82
2019-04-21T08:41:15.232Z,12.37
2019-04-21T08:43:44.614Z,11.35
2019-04-21T08:46:20.328Z,12.18
2019-04-21T08:48:54.244Z,10.25
2019-04-21T08:51:28.927Z,9.13
2019-04-21T08:53:53.485Z,13.85
2019-04-21T08:56:47.083Z,10.55
2019-04-21T08:59:31.366Z,13.03
2019-04-21T09:02:29.527Z,11.18
2019-04-21T09:04:59.214Z,11.63
2019-04-21T09:07:36.149Z,10.30
2019-04-21T09:10:03.174Z,9.80
2019-04-21T09:12:34.606Z,10.58
2019-04-21T09:15:08.828Z,10.63
2019-04-21T09:17:31.577Z,10.78
2019-04-21T09:20:16.982Z,9.20
2019-04-21T09:22:41.197Z,12.20
2019-04-21T09:25:19.585Z,11.83
2019-04-21T09:27:42.445Z,9.08
2019-04-21T09:30:02.669Z,9.85
2019-04-21T09:32:32.995Z,8.80
2019-04-21T09:35:06.026Z,13.00
2019-04-21T09:37:44.423Z,8.83
2019-04-21T09:40:08.821Z,8.95
2019-04-21T09:42:47.367Z,9.33
2019-04-21T09:45:12.508Z,14.30
2019-04-21T09:47:52.566Z,25.82
2019-04-21T09:50:17.339Z,7.95
2019-04-21T09:52:54.512Z,12.18
2019-04-21T09:55:23.196Z,7.95
2019-04-21T09:57:55.693Z,10.20
2019-04-21T10:00:28.723Z,7.42
2019-04-21T10:03:02.853Z,9.30
2019-04-21T10:05:29.628Z,9.05
2019-04-21T10:08:01.301Z,11.70
2019-04-21T10:10:36.462Z,11.33
2019-04-21T10:13:07.135Z,9.18
2019-04-21T10:15:37.761Z,14.00
2019-04-21T10:18:13.117Z,9.88
2019-04-21T10:20:44.781Z,12.00
2019-04-21T10:23:15.747Z,8.73
2019-04-21T10:25:48.375Z,12.30
2019-04-21T10:28:19.151Z,11.80
2019-04-21T10:30:50.868Z,10.50
2019-04-21T10:33:22.012Z,10.03
2019-04-21T10:35:53.087Z,11.57
2019-04-21T10:38:34.341Z,11.22
2019-04-21T10:40:57.136Z,9.78
2019-04-21T10:43:29.171Z,11.35
2019-04-21T10:46:01.091Z,9.53
2019-04-21T10:48:34.598Z,7.05
2019-04-21T10:51:05.300Z,7.58
2019-04-21T10:53:38.600Z,10.78
2019-04-21T10:56:19.229Z,10.10
2019-04-21T10:58:44.552Z,10.03
2019-04-21T11:01:21.030Z,12.45
2019-04-21T11:04:21.923Z,7.80
2019-04-21T11:06:50.485Z,9.60
2019-04-21T11:09:22.049Z,8.65
2019-04-21T11:11:53.581Z,15.00
2019-04-21T11:14:25.489Z,8.33
2019-04-21T11:16:56.596Z,15.40
2019-04-21T11:19:28.736Z,10.65
2019-04-21T11:21:59.230Z,12.70
2019-04-21T11:24:31.178Z,7.25
2019-04-21T11:27:01.987Z,8.45
2019-04-21T11:29:34.978Z,11.65
2019-04-21T11:32:07.098Z,10.50
2019-04-21T11:34:38.932Z,10.23
2019-04-21T11:37:10.733Z,10.00
2019-04-21T11:39:50.159Z,8.68
2019-04-21T11:42:21.762Z,10.70
2019-04-21T11:44:53.470Z,12.15
2019-04-21T11:47:28.607Z,8.28
2019-04-21T11:49:59.139Z,7.37
2019-04-21T11:52:29.735Z,9.00
2019-04-21T11:55:00.538Z,6.87
2019-04-21T11:57:36.437Z,9.00
2019-04-21T12:00:06.057Z,12.80
2019-04-21T12:02:37.419Z,9.90
2019-04-21T12:05:09.737Z,11.83
2019-04-21T12:07:40.902Z,10.30
2019-04-21T12:10:13.422Z,12.20
2019-04-21T12:12:45.335Z,15.43
2019-04-21T12:15:16.739Z,17.30
2019-04-21T12:17:48.078Z,13.13
2019-04-21T12:20:18.835Z,9.83
2019-04-21T12:22:49.502Z,11.15
2019-04-21T12:25:20.962Z,9.93
2019-04-21T12:27:52.090Z,9.48
2019-04-21T12:30:24.186Z,9.88
2019-04-21T12:33:07.719Z,8.03
2019-04-21T12:35:39.734Z,9.10
2019-04-21T12:38:10.953Z,8.13
2019-04-21T12:40:42.301Z,9.98
2019-04-21T12:43:13.188Z,11.18
2019-04-21T12:45:44.119Z,14.78
2019-04-21T12:48:15.903Z,12.37
2019-04-21T12:50:47.852Z,15.10
2019-04-21T12:53:19.368Z,10.08
2019-04-21T12:55:49.978Z,10.40
2019-04-21T12:58:21.537Z,10.35
2019-04-21T13:00:52.184Z,8.83
2019-04-21T13:03:25.488Z,13.32
2019-04-21T13:05:56.374Z,13.18
2019-04-21T13:08:27.170Z,10.35
2019-04-21T13:10:58.067Z,21.10
2019-04-21T13:13:30.024Z,10.95
2019-04-21T13:16:01.145Z,11.55
2019-04-21T13:18:31.708Z,10.85
2019-04-21T13:21:03.912Z,11.00
2019-04-21T13:23:35.009Z,9.93
2019-04-21T13:26:07.880Z,10.95
2019-04-21T13:28:38.324Z,12.13
2019-04-21T13:31:08.726Z,11.10
2019-04-21T13:33:39.889Z,10.05
2019-04-21T13:36:11.789Z,12.98
2019-04-21T13:39:36.088Z,10.78
2019-04-21T13:41:50.579Z,9.60
2019-04-21T13:44:13.349Z,9.45
2019-04-21T13:46:45.184Z,12.90
2019-04-21T13:49:17.269Z,8.98
2019-04-21T13:51:48.170Z,11.05
2019-04-21T13:54:19.777Z,8.68
2019-04-21T13:56:50.444Z,12.43
2019-04-21T13:59:22.403Z,12.37
2019-04-21T14:01:54.011Z,6.20
2019-04-21T14:04:25.304Z,10.45
2019-04-21T14:06:56.376Z,8.65
2019-04-21T14:09:37.915Z,10.08
2019-04-21T14:12:01.356Z,20.48
2019-04-21T14:14:34.448Z,11.90
2019-04-21T14:17:06.814Z,10.80
2019-04-21T14:19:37.407Z,9.03
2019-04-21T14:22:10.300Z,10.40
2019-04-21T14:24:41.522Z,13.10
2019-04-21T14:27:16.321Z,9.53
2019-04-21T14:29:47.174Z,9.95
2019-04-21T14:32:18.239Z,11.17
2019-04-21T14:34:52.422Z,14.45
2019-04-21T14:37:22.596Z,9.63
2019-04-21T14:40:01.861Z,19.23
2019-04-21T14:42:26.142Z,12.57
2019-04-21T14:44:56.926Z,7.87
2019-04-21T14:47:53.914Z,9.73
2019-04-21T14:50:32.437Z,12.97
2019-04-21T14:53:12.293Z,13.00
2019-04-21T14:55:45.802Z,12.17
2019-04-21T14:58:17.182Z,11.20
2019-04-21T15:01:04.179Z,13.53
2019-04-21T15:03:34.692Z,28.67
2019-04-21T15:06:05.554Z,10.50
2019-04-21T15:08:37.261Z,29.00
2019-04-21T15:11:09.850Z,11.53
2019-04-21T15:13:40.555Z,10.13
2019-04-21T15:16:13.023Z,11.63
2019-04-21T15:18:44.532Z,12.47
2019-04-21T15:21:17.338Z,10.93
2019-04-21T15:23:48.480Z,19.33
2019-04-21T15:26:20.074Z,8.80
2019-04-21T15:28:51.039Z,9.37
2019-04-21T15:31:28.740Z,11.37
2019-04-21T15:33:55.308Z,10.20
2019-04-21T15:36:27.119Z,8.30
2019-04-21T15:38:59.653Z,7.90
2019-04-21T15:41:30.289Z,9.60
2019-04-21T15:44:03.165Z,7.60
2019-04-21T15:46:35.152Z,6.57
2019-04-21T15:49:06.881Z,8.77
2019-04-21T15:51:38.006Z,9.80
2019-04-21T15:54:08.907Z,7.13
2019-04-21T15:56:46.966Z,9.80
2019-04-21T15:59:30.592Z,11.83
2019-04-21T16:02:19.978Z,8.30
2019-04-21T16:04:50.610Z,7.33
2019-04-21T16:07:22.233Z,10.20
2019-04-21T16:09:54.252Z,11.97
2019-04-21T16:12:25.697Z,14.93
2019-04-21T16:14:56.601Z,45.57
2019-04-21T16:17:27.579Z,13.13
2019-04-21T16:19:59.480Z,13.03
2019-04-21T16:22:32.631Z,16.23
2019-04-21T16:25:03.473Z,13.60
2019-04-21T16:27:35.192Z,11.20
2019-04-21T16:30:07.920Z,12.73
2019-04-21T16:32:38.446Z,13.37
2019-04-21T16:35:12.213Z,15.33
2019-04-21T16:37:41.658Z,10.90
2019-04-21T16:40:13.697Z,13.13
2019-04-21T16:42:45.751Z,14.87
2019-04-21T16:45:18.920Z,13.30
2019-04-21T16:47:52.132Z,13.80
2019-04-21T16:50:23.453Z,14.57
2019-04-21T16:52:59.659Z,15.70
2019-04-21T16:55:35.343Z,11.80
2019-04-21T16:58:26.885Z,18.10
2019-04-21T17:01:05.311Z,16.23
2019-04-21T17:03:32.716Z,15.50
2019-04-21T17:06:05.138Z,18.20
2019-04-21T17:08:36.825Z,20.10
2019-04-21T17:11:16.129Z,17.93
2019-04-21T17:13:42.044Z,16.90
2019-04-21T17:16:44.897Z,18.37
2019-04-21T17:18:57.531Z,25.53
2019-04-21T17:21:16.900Z,18.30
2019-04-21T17:23:48.239Z,26.17
2019-04-21T17:26:19.407Z,15.50
2019-04-21T17:28:50.556Z,17.77
2019-04-21T17:31:22.280Z,19.13
2019-04-21T17:34:02.094Z,13.33
2019-04-21T17:36:25.226Z,14.97
2019-04-21T17:38:55.884Z,14.07
2019-04-21T17:41:35.332Z,14.73
2019-04-21T17:44:00.249Z,14.43
2019-04-21T17:46:40.837Z,14.20
2019-04-21T17:49:05.207Z,13.43
2019-04-21T17:52:09.826Z,18.23
2019-04-21T17:54:46.866Z,21.30
2019-04-21T17:57:31.626Z,20.80
2019-04-21T18:00:09.748Z,18.57
2019-04-21T18:02:41.676Z,15.20
2019-04-21T18:05:19.363Z,16.33
2019-04-21T18:07:47.799Z,24.60
2019-04-21T18:10:12.620Z,16.63
2019-04-21T18:12:42.051Z,20.60
2019-04-21T18:15:19.283Z,14.67
2019-04-21T18:17:34.228Z,17.87
2019-04-21T18:20:06.072Z,16.80
2019-04-21T18:22:49.475Z,13.43
2019-04-21T18:25:34.744Z,18.33
2019-04-21T18:27:54.568Z,16.70
2019-04-21T18:30:44.694Z,11.70
2019-04-21T18:33:22.255Z,16.93
2019-04-21T18:36:29.077Z,17.23
2019-04-21T18:39:33.846Z,14.43
2019-04-21T18:42:10.867Z,10.77
2019-04-21T18:45:28.146Z,12.50
2019-04-21T18:47:53.729Z,11.97
2019-04-21T18:50:37.065Z,15.93
2019-04-21T18:53:23.845Z,11.23
2019-04-21T18:55:46.590Z,14.77
2019-04-21T18:58:15.631Z,15.43
2019-04-21T19:00:46.476Z,14.80
2019-04-21T19:03:25.386Z,17.43
2019-04-21T19:05:54.455Z,15.67
2019-04-21T19:08:44.366Z,13.67
2019-04-21T19:11:15.096Z,16.33
2019-04-21T19:14:14.322Z,21.40
2019-04-21T19:19:36.671Z,22.43
2019-04-21T19:21:32.881Z,16.93
2019-04-21T19:24:17.965Z,15.03
2019-04-21T19:29:22.799Z,18.80
2019-04-21T19:31:49.494Z,18.47
2019-04-21T19:34:07.781Z,18.50
2019-04-21T19:36:33.200Z,22.03
2019-04-21T19:39:16.366Z,20.77
2019-04-21T19:41:56.046Z,25.63
2019-04-21T19:44:36.901Z,20.77
2019-04-21T19:47:06.559Z,23.23
2019-04-21T19:49:40.059Z,33.63
2019-04-21T19:51:58.804Z,24.87
2019-04-21T19:54:29.928Z,22.07
2019-04-21T19:56:53.676Z,25.50
2019-04-21T19:59:32.429Z,29.43
2019-04-21T20:01:56.260Z,28.43
2019-04-21T20:04:34.521Z,28.60
2019-04-21T20:07:15.588Z,39.93
2019-04-21T20:09:46.215Z,41.93
2019-04-21T20:12:21.465Z,42.10
2019-04-21T20:14:59.658Z,34.43
2019-04-21T20:17:19.052Z,30.60
2019-04-21T20:19:40.277Z,37.37
2019-04-21T20:22:11.439Z,31.60
2019-04-21T20:24:51.362Z,27.43
2019-04-21T20:27:19.930Z,40.67
2019-04-21T20:30:04.003Z,35.17
2019-04-21T20:32:39.822Z,39.53
2019-04-21T20:35:26.666Z,50.07
2019-04-21T20:37:42.454Z,38.00
2019-04-21T20:40:02.225Z,33.33
2019-04-21T20:42:42.515Z,31.57
2019-04-21T20:47:39.373Z,40.60
2019-04-21T20:50:19.738Z,42.27
2019-04-21T20:52:58.392Z,37.20
2019-04-21T20:55:21.461Z,43.87
2019-04-21T20:57:53.686Z,44.23
2019-04-21T21:00:39.179Z,43.10
2019-04-21T21:03:07.722Z,43.83
2019-04-21T21:05:31.577Z,35.77
2019-04-21T21:08:11.565Z,32.93
2019-04-21T21:10:41.280Z,41.67
2019-04-21T21:13:24.318Z,38.60
2019-04-21T21:15:52.721Z,40.20
2019-04-21T21:18:41.061Z,39.43
2019-04-21T21:20:54.097Z,65.47
2019-04-21T21:23:20.489Z,43.10
2019-04-21T21:25:54.484Z,41.93
2019-04-21T21:28:26.634Z,37.63
2019-04-21T21:31:02.745Z,39.17
2019-04-21T21:33:35.466Z,49.03
2019-04-21T21:36:10.719Z,40.17
2019-04-21T21:38:43.008Z,37.47
2019-04-21T21:41:07.650Z,40.13
2019-04-21T21:43:29.406Z,45.30
2019-04-21T21:46:04.885Z,47.20
2019-04-21T21:48:49.013Z,48.07
2019-04-21T21:51:15.497Z,46.47
2019-04-21T21:53:40.690Z,35.20
2019-04-21T21:56:10.970Z,37.57
2019-04-21T21:58:43.976Z,38.37
2019-04-21T22:01:20.553Z,40.80
2019-04-21T22:04:01.699Z,36.83
2019-04-21T22:06:23.990Z,41.00
2019-04-21T22:08:54.402Z,41.60
2019-04-21T22:11:26.292Z,36.43
2019-04-21T22:14:02.802Z,36.40
2019-04-21T22:16:46.654Z,35.67
2019-04-21T22:19:18.747Z,36.80
2019-04-21T22:21:53.474Z,41.97
2019-04-21T22:24:20.373Z,34.57
2019-04-21T22:26:39.058Z,33.93
2019-04-21T22:29:09.768Z,33.37
2019-04-21T22:31:41.580Z,22.77
2019-04-21T22:34:14.468Z,21.70
2019-04-21T22:36:53.649Z,23.00
2019-04-21T22:39:33.084Z,22.83
2019-04-21T22:42:00.530Z,24.33
2019-04-21T22:44:20.760Z,26.37
2019-04-21T22:47:04.261Z,24.40
2019-04-21T22:49:23.843Z,23.20
2019-04-21T22:51:55.692Z,25.27
2019-04-21T22:54:32.743Z,23.70
2019-04-21T22:57:06.485Z,29.13
2019-04-21T22:59:32.047Z,24.80
2019-04-21T23:02:06.319Z,38.57
2019-04-21T23:04:42.024Z,38.60
2019-04-21T23:07:10.048Z,38.67
2019-04-21T23:09:38.877Z,46.40
2019-04-21T23:12:12.413Z,55.47
2019-04-21T23:14:50.710Z,44.50
2019-04-21T23:17:35.401Z,38.67
2019-04-21T23:20:05.625Z,39.90
2019-04-21T23:22:48.852Z,33.00
2019-04-21T23:25:09.017Z,31.50
2019-04-21T23:27:40.613Z,37.73
2019-04-21T23:30:20.286Z,73.27
2019-04-21T23:32:38.550Z,82.00
2019-04-21T23:35:09.214Z,64.27
2019-04-21T23:37:34.136Z,57.83
2019-04-21T23:40:11.943Z,53.50
2019-04-21T23:42:39.800Z,42.17
2019-04-21T23:45:10.530Z,50.87
2019-04-21T23:47:52.839Z,44.63
2019-04-21T23:50:24.930Z,40.20
2019-04-21T23:52:45.793Z,31.17
2019-04-21T23:55:17.047Z,34.50
2019-04-21T23:57:50.076Z,38.63
